Time;durP1;ratioP1;P1;durP2;ratioP2;P2;SDS_P1;SDS_P2;PMS_P1;PMS_P2;Temp;Humidity;BMP_temperature;BMP_pressure;BME280_temperature;BME280_humidity;BME280_pressure;Samples;Min_cycle;Max_cycle;Signal;HPM_P1;HPM_P2
2022/02/25 00:00:06;;;;;;;14.93;2.78;;;7.80;99.90;;;;;;5030603;28;20033;-66
2022/02/25 00:03:15;;;;;;;8.13;2.70;;;7.80;99.90;;;;;;5030783;28;20053;-66
2022/02/25 00:06:21;;;;;;;13.82;2.55;;;7.90;99.90;;;;;;5030295;28;20033;-66
2022/02/25 00:09:25;;;;;;;11.23;2.90;;;8.10;99.90;;;;;;5030261;28;20400;-66
2022/02/25 00:12:29;;;;;;;12.27;2.55;;;8.10;99.90;;;;;;5030914;28;20044;-66
2022/02/25 00:15:32;;;;;;;10.18;3.00;;;8.10;99.90;;;;;;5030458;28;20048;-66
2022/02/25 00:18:36;;;;;;;7.78;2.40;;;8.00;99.90;;;;;;5029777;28;20499;-66
2022/02/25 00:21:40;;;;;;;11.85;2.60;;;8.00;99.90;;;;;;5030420;28;20030;-66
2022/02/25 00:24:45;;;;;;;10.27;3.20;;;7.90;99.90;;;;;;5030134;28;20048;-66
2022/02/25 00:27:50;;;;;;;8.40;2.78;;;7.80;99.90;;;;;;5030566;28;20044;-66
2022/02/25 00:30:56;;;;;;;12.10;3.80;;;7.80;99.90;;;;;;5030665;28;20049;-67
2022/02/25 00:34:00;;;;;;;14.80;3.85;;;7.70;99.90;;;;;;5030220;28;20048;-66
2022/02/25 00:37:04;;;;;;;13.90;4.05;;;7.80;99.90;;;;;;5029522;28;20045;-66
2022/02/25 00:40:09;;;;;;;14.63;4.28;;;7.70;99.90;;;;;;5029840;28;20041;-66
2022/02/25 00:43:14;;;;;;;16.58;4.00;;;7.70;99.90;;;;;;5029508;28;20052;-66
2022/02/25 00:46:18;;;;;;;15.57;4.13;;;7.70;99.90;;;;;;5029463;28;20044;-66
2022/02/25 00:49:22;;;;;;;12.32;3.53;;;7.80;99.90;;;;;;5029392;28;20391;-66
2022/02/25 00:52:26;;;;;;;15.68;3.80;;;7.90;99.90;;;;;;5030093;28;20048;-66
2022/02/25 00:55:30;;;;;;;14.57;3.45;;;8.10;99.90;;;;;;5029962;28;20040;-66
2022/02/25 00:58:34;;;;;;;16.98;3.50;;;8.30;99.90;;;;;;5029498;28;20036;-66
2022/02/25 01:01:38;;;;;;;10.43;2.95;;;8.50;99.90;;;;;;5030404;28;20399;-66
2022/02/25 01:04:56;;;;;;;17.25;3.33;;;8.60;99.90;;;;;;5029742;28;20048;-66
2022/02/25 01:08:05;;;;;;;18.25;3.42;;;8.70;99.90;;;;;;5029980;28;20044;-66
2022/02/25 01:11:09;;;;;;;15.93;4.70;;;8.80;99.90;;;;;;5030055;28;20052;-66
2022/02/25 01:14:14;;;;;;;12.18;4.20;;;8.90;99.90;;;;;;5028702;28;20056;-66
2022/02/25 01:17:19;;;;;;;12.65;5.00;;;8.60;99.90;;;;;;5029068;28;20032;-66
2022/02/25 01:20:23;;;;;;;12.05;3.97;;;8.50;99.90;;;;;;5033501;28;20078;-66
2022/02/25 01:23:27;;;;;;;11.35;4.65;;;8.30;99.90;;;;;;5034132;28;20404;-66
2022/02/25 01:26:32;;;;;;;9.20;4.63;;;7.80;99.90;;;;;;5033669;28;20048;-66
2022/02/25 01:29:36;;;;;;;9.23;5.05;;;7.80;99.90;;;;;;5033235;28;20041;-66
2022/02/25 01:32:41;;;;;;;11.75;4.05;;;7.70;99.90;;;;;;5033805;28;20045;-66
2022/02/25 01:35:45;;;;;;;13.68;5.13;;;7.60;99.90;;;;;;5032693;28;20044;-66
2022/02/25 01:38:50;;;;;;;9.85;3.13;;;7.60;99.90;;;;;;5032988;28;20049;-66
2022/02/25 01:41:55;;;;;;;12.63;5.03;;;7.60;99.90;;;;;;5032652;28;20041;-66
2022/02/25 01:45:00;;;;;;;21.70;6.85;;;7.80;99.90;;;;;;5033811;28;20576;-66
2022/02/25 01:48:06;;;;;;;13.07;4.47;;;7.90;99.90;;;;;;5033591;28;20053;-66
2022/02/25 01:51:10;;;;;;;11.05;4.47;;;7.50;99.90;;;;;;5033302;28;20057;-66
2022/02/25 01:54:15;;;;;;;13.57;4.40;;;7.60;99.90;;;;;;5033150;28;20052;-66
2022/02/25 01:57:19;;;;;;;20.15;6.32;;;7.50;99.90;;;;;;5032626;28;20068;-66
2022/02/25 02:00:24;;;;;;;13.25;4.90;;;7.40;99.90;;;;;;5033250;28;20048;-66
2022/02/25 02:03:28;;;;;;;12.95;5.57;;;7.50;99.90;;;;;;5032354;28;20048;-66
2022/02/25 02:06:33;;;;;;;16.52;5.53;;;7.50;99.90;;;;;;5032485;28;20044;-65
2022/02/25 02:09:37;;;;;;;16.92;5.50;;;7.60;99.90;;;;;;5032986;28;20044;-65
2022/02/25 02:12:41;;;;;;;14.32;5.18;;;7.70;99.90;;;;;;5033017;28;20050;-66
2022/02/25 02:15:45;;;;;;;9.43;3.60;;;7.70;99.90;;;;;;5032967;28;20080;-66
2022/02/25 02:18:49;;;;;;;18.73;3.45;;;7.90;99.90;;;;;;5032862;28;20042;-65
2022/02/25 02:21:55;;;;;;;15.68;3.20;;;7.90;99.90;;;;;;5033007;28;20044;-66
2022/02/25 02:25:00;;;;;;;12.65;4.05;;;8.00;99.90;;;;;;5033141;28;20054;-66
2022/02/25 02:28:21;;;;;;;25.65;6.18;;;8.00;99.90;;;;;;5032703;28;20048;-65
2022/02/25 02:31:25;;;;;;;16.17;5.60;;;8.20;99.90;;;;;;5031864;28;20385;-66
2022/02/25 02:34:29;;;;;;;14.82;3.58;;;8.30;99.90;;;;;;5032563;28;20422;-66
2022/02/25 02:37:34;;;;;;;10.50;3.42;;;8.20;99.90;;;;;;5032323;28;20044;-66
2022/02/25 02:45:31;;;;;;;13.30;4.60;;;7.80;99.90;;;;;;5033130;28;20036;-66
2022/02/25 02:48:35;;;;;;;12.55;5.30;;;7.90;99.90;;;;;;5031646;28;20068;-66
2022/02/25 02:51:39;;;;;;;10.52;4.43;;;8.00;99.90;;;;;;5032390;28;20044;-66
2022/02/25 02:54:43;;;;;;;10.52;3.50;;;8.00;99.90;;;;;;5032473;28;20060;-66
2022/02/25 02:57:47;;;;;;;8.60;2.85;;;8.10;99.90;;;;;;5031931;28;20048;-66
2022/02/25 03:00:52;;;;;;;16.73;6.75;;;8.30;99.90;;;;;;5032193;28;20038;-66
2022/02/25 03:03:57;;;;;;;9.10;5.88;;;8.50;99.90;;;;;;5032093;28;20064;-66
2022/02/25 03:07:01;;;;;;;8.10;4.60;;;7.80;99.90;;;;;;5031959;28;20038;-66
2022/02/25 03:10:05;;;;;;;9.13;4.25;;;7.70;99.90;;;;;;5031787;28;20357;-66
2022/02/25 03:13:10;;;;;;;10.20;4.47;;;7.80;99.90;;;;;;5031823;28;20041;-66
2022/02/25 03:16:15;;;;;;;12.77;4.25;;;7.90;99.90;;;;;;5031879;28;20388;-65
2022/02/25 03:19:20;;;;;;;13.55;3.90;;;8.10;99.90;;;;;;5031335;28;20049;-65
2022/02/25 03:22:25;;;;;;;17.38;7.50;;;8.20;99.90;;;;;;5032126;28;20040;-66
2022/02/25 03:25:32;;;;;;;18.45;6.85;;;8.00;99.90;;;;;;5031232;28;20064;-66
2022/02/25 03:28:37;;;;;;;10.38;4.85;;;7.80;99.90;;;;;;5031466;28;20503;-66
2022/02/25 03:31:41;;;;;;;14.18;5.88;;;7.70;99.90;;;;;;5031951;28;20057;-66
2022/02/25 03:34:45;;;;;;;13.10;6.28;;;7.50;99.90;;;;;;5031774;28;20056;-66
2022/02/25 03:37:50;;;;;;;14.38;6.65;;;7.50;99.90;;;;;;5031371;28;20049;-66
2022/02/25 03:40:54;;;;;;;10.32;6.60;;;7.40;99.90;;;;;;5031403;28;20044;-66
2022/02/25 03:43:59;;;;;;;17.90;7.95;;;7.30;99.90;;;;;;5031281;28;20048;-66
2022/02/25 03:47:04;;;;;;;12.30;6.30;;;7.30;99.90;;;;;;5031201;28;20408;-66
2022/02/25 03:50:09;;;;;;;13.60;7.03;;;7.30;99.90;;;;;;5031107;28;20515;-66
2022/02/25 03:53:14;;;;;;;16.50;8.52;;;7.40;99.90;;;;;;5031120;28;20052;-66
2022/02/25 03:56:18;;;;;;;13.77;6.25;;;7.30;99.90;;;;;;5031222;28;20048;-66
2022/02/25 03:59:23;;;;;;;12.20;6.15;;;7.40;99.90;;;;;;5029606;28;20048;-66
2022/02/25 04:02:27;;;;;;;12.52;6.15;;;7.50;99.90;;;;;;5031338;28;20048;-66
2022/02/25 04:05:31;;;;;;;19.08;9.32;;;7.60;99.90;;;;;;5030733;28;20050;-66
2022/02/25 04:08:35;;;;;;;15.02;7.15;;;7.30;99.90;;;;;;5030509;28;20060;-66
2022/02/25 04:11:39;;;;;;;15.93;8.10;;;7.20;99.90;;;;;;5030820;28;20044;-66
2022/02/25 04:14:44;;;;;;;16.63;7.18;;;7.00;99.90;;;;;;5030578;28;20048;-66
2022/02/25 04:17:48;;;;;;;14.50;8.27;;;6.90;99.90;;;;;;5030472;28;20496;-66
2022/02/25 04:20:52;;;;;;;15.55;9.38;;;6.90;99.90;;;;;;5030612;28;20044;-66
2022/02/25 04:23:56;;;;;;;16.92;8.52;;;6.30;99.90;;;;;;5030732;28;20072;-66
2022/02/25 04:27:01;;;;;;;16.55;8.77;;;6.40;99.90;;;;;;5030577;28;20033;-66
2022/02/25 04:30:06;;;;;;;17.33;9.65;;;6.50;99.90;;;;;;5029680;28;20388;-66
2022/02/25 04:33:10;;;;;;;19.45;9.98;;;6.60;99.90;;;;;;5030407;28;20052;-66
2022/02/25 04:36:14;;;;;;;14.68;7.38;;;6.50;99.90;;;;;;5029678;28;20048;-68
2022/02/25 04:39:18;;;;;;;15.52;7.25;;;6.50;99.90;;;;;;5029741;28;20491;-68
2022/02/25 04:42:23;;;;;;;25.40;7.57;;;6.60;99.90;;;;;;5029510;28;20045;-68
2022/02/25 04:45:27;;;;;;;9.52;6.32;;;6.60;99.90;;;;;;5029691;28;20052;-66
2022/02/25 04:48:31;;;;;;;16.10;8.07;;;6.70;99.90;;;;;;5029883;28;20053;-68
2022/02/25 04:51:36;;;;;;;18.52;8.25;;;6.70;99.90;;;;;;5029000;28;20503;-68
2022/02/25 04:54:40;;;;;;;13.75;5.88;;;6.80;99.90;;;;;;5029824;28;20048;-68
2022/02/25 04:57:44;;;;;;;17.25;8.52;;;6.90;99.90;;;;;;5029111;28;20048;-68
2022/02/25 05:00:48;;;;;;;20.60;9.45;;;6.80;99.90;;;;;;5029070;28;20040;-68
2022/02/25 05:03:52;;;;;;;16.85;9.63;;;6.40;99.90;;;;;;5030022;28;20040;-68
2022/02/25 05:06:56;;;;;;;16.23;9.85;;;6.50;99.90;;;;;;5029095;28;20044;-68
2022/02/25 05:10:00;;;;;;;17.38;10.70;;;6.40;99.90;;;;;;5029716;28;20686;-68
2022/02/25 05:13:05;;;;;;;18.35;10.30;;;6.30;99.90;;;;;;5030055;28;20048;-68
2022/02/25 05:22:56;;;;;;;19.90;10.23;;;6.20;99.90;;;;;;5030097;28;20040;-68
2022/02/25 05:26:01;;;;;;;20.77;11.80;;;6.30;99.90;;;;;;5030001;28;20498;-68
2022/02/25 05:29:05;;;;;;;18.30;10.48;;;6.50;99.90;;;;;;5029360;28;20048;-68
2022/02/25 05:32:09;;;;;;;21.23;12.70;;;6.60;99.90;;;;;;5028550;28;20048;-68
2022/02/25 05:35:14;;;;;;;20.15;11.60;;;6.30;99.90;;;;;;5029155;28;20048;-68
2022/02/25 05:38:18;;;;;;;20.30;10.52;;;6.40;99.90;;;;;;5029456;28;20060;-68
2022/02/25 05:41:22;;;;;;;19.95;9.25;;;6.50;99.90;;;;;;5030083;28;20048;-68
2022/02/25 05:44:26;;;;;;;17.27;8.02;;;6.70;99.90;;;;;;5029757;28;20043;-68
2022/02/25 05:47:34;;;;;;;19.58;8.05;;;6.90;99.90;;;;;;5029663;28;20048;-68
2022/02/25 05:50:38;;;;;;;16.23;8.15;;;7.20;99.90;;;;;;5029981;28;20052;-68
2022/02/25 05:53:42;;;;;;;15.13;8.80;;;7.20;99.90;;;;;;5029828;28;20049;-68
2022/02/25 05:56:46;;;;;;;15.10;8.23;;;7.20;99.90;;;;;;5030243;28;20052;-68
2022/02/25 05:59:50;;;;;;;13.95;8.43;;;7.30;99.90;;;;;;5028854;28;20044;-68
2022/02/25 06:02:54;;;;;;;18.13;10.57;;;7.30;99.90;;;;;;5029518;28;20045;-68
2022/02/25 06:05:58;;;;;;;24.50;10.23;;;7.30;99.90;;;;;;5033219;28;20059;-68
2022/02/25 06:09:02;;;;;;;22.80;11.07;;;7.10;99.90;;;;;;5032830;28;20057;-68
2022/02/25 06:12:07;;;;;;;21.13;11.85;;;7.00;99.90;;;;;;5032977;28;20412;-68
2022/02/25 06:15:11;;;;;;;22.67;13.30;;;6.80;99.90;;;;;;5031994;28;20072;-68
2022/02/25 06:18:17;;;;;;;31.60;12.40;;;6.70;99.90;;;;;;5032336;28;20045;-68
2022/02/25 06:21:21;;;;;;;20.33;12.50;;;6.70;99.90;;;;;;5033990;28;20389;-68
2022/02/25 06:24:25;;;;;;;22.30;12.07;;;6.60;99.90;;;;;;5032973;28;20495;-68
2022/02/25 06:27:29;;;;;;;25.92;12.60;;;6.70;99.90;;;;;;5032949;28;20048;-67
2022/02/25 06:30:34;;;;;;;29.10;11.43;;;6.70;99.90;;;;;;5032619;28;20044;-67
2022/02/25 06:33:37;;;;;;;20.45;12.55;;;6.80;99.90;;;;;;5032723;28;20286;-68
2022/02/25 06:36:42;;;;;;;23.35;14.32;;;6.60;99.90;;;;;;5032683;28;20036;-68
2022/02/25 06:39:47;;;;;;;22.13;12.75;;;6.50;99.90;;;;;;5031532;28;20044;-68
2022/02/25 06:42:51;;;;;;;25.58;14.07;;;6.50;99.90;;;;;;5032563;28;20037;-68
2022/02/25 06:45:56;;;;;;;22.50;12.30;;;6.50;99.90;;;;;;5032394;28;20515;-68
2022/02/25 06:49:01;;;;;;;22.33;12.10;;;6.50;99.90;;;;;;5031926;28;20428;-68
2022/02/25 06:52:06;;;;;;;21.58;11.25;;;6.50;99.90;;;;;;5032348;28;20048;-68
2022/02/25 06:55:14;;;;;;;17.02;10.40;;;6.50;99.90;;;;;;5032078;28;20056;-68
2022/02/25 06:58:18;;;;;;;20.27;10.75;;;6.50;99.90;;;;;;5031656;28;20052;-68
2022/02/25 07:01:24;;;;;;;16.65;10.80;;;6.60;99.90;;;;;;5027892;28;20056;-68
2022/02/25 07:04:28;;;;;;;17.88;10.35;;;6.60;99.90;;;;;;5026462;28;20396;-68
2022/02/25 07:07:31;;;;;;;18.67;11.35;;;6.70;99.90;;;;;;5025780;28;20503;-67
2022/02/25 07:10:38;;;;;;;16.70;9.60;;;6.70;99.90;;;;;;5027548;28;20052;-67
2022/02/25 07:13:43;;;;;;;18.00;10.07;;;6.70;99.90;;;;;;5031899;28;20423;-68
2022/02/25 07:16:48;;;;;;;25.05;10.98;;;6.80;99.90;;;;;;5024442;28;20052;-68
2022/02/25 07:19:52;;;;;;;17.20;10.23;;;6.80;99.90;;;;;;5027852;28;20514;-68
2022/02/25 07:22:55;;;;;;;17.52;9.82;;;6.90;99.90;;;;;;5022196;28;20397;-68
2022/02/25 07:25:59;;;;;;;14.65;8.68;;;7.10;99.90;;;;;;5025880;28;20496;-68
2022/02/25 07:29:05;;;;;;;16.65;8.32;;;7.30;99.90;;;;;;5028556;28;21217;-67
2022/02/25 07:32:09;;;;;;;15.93;8.57;;;7.40;99.90;;;;;;5030659;28;20120;-67
2022/02/25 07:35:13;;;;;;;17.58;7.90;;;7.50;99.90;;;;;;5028634;28;20052;-68
2022/02/25 07:38:17;;;;;;;13.20;7.88;;;7.70;99.90;;;;;;5022527;28;20519;-67
2022/02/25 07:41:22;;;;;;;14.50;7.45;;;8.00;99.90;;;;;;5024870;28;20044;-68
2022/02/25 07:44:27;;;;;;;12.60;7.80;;;8.20;99.90;;;;;;5028951;28;20037;-68
2022/02/25 07:47:31;;;;;;;11.60;6.65;;;8.30;99.90;;;;;;5024451;28;20052;-68
2022/02/25 07:50:37;;;;;;;15.10;7.75;;;8.60;99.90;;;;;;5026849;28;20048;-68
2022/02/25 07:53:44;;;;;;;17.42;8.15;;;8.60;99.90;;;;;;5026386;28;20487;-68
2022/02/25 07:56:49;;;;;;;14.43;6.55;;;9.30;99.90;;;;;;5026677;28;20036;-68
2022/02/25 07:59:53;;;;;;;15.07;6.68;;;10.40;99.90;;;;;;5025984;28;20255;-68
2022/02/25 08:02:58;;;;;;;13.15;7.00;;;10.00;99.90;;;;;;5021037;28;20068;-68
2022/02/25 08:06:03;;;;;;;16.30;7.40;;;9.80;99.90;;;;;;5025764;28;20040;-68
2022/02/25 08:09:09;;;;;;;12.40;6.80;;;9.20;99.90;;;;;;5024840;28;20535;-68
2022/02/25 08:12:13;;;;;;;11.13;6.85;;;9.70;99.90;;;;;;5023068;28;20060;-67
2022/02/25 08:15:17;;;;;;;16.23;8.27;;;9.60;99.90;;;;;;5030439;28;20128;-68
2022/02/25 08:18:22;;;;;;;16.20;7.75;;;9.00;99.90;;;;;;5021216;28;20053;-67
2022/02/25 08:21:25;;;;;;;13.38;7.60;;;9.30;99.90;;;;;;5024929;28;20223;-67
2022/02/25 08:24:29;;;;;;;18.48;8.65;;;9.30;99.90;;;;;;5028137;28;20044;-67
2022/02/25 08:27:35;;;;;;;12.18;7.88;;;9.20;99.90;;;;;;5026016;28;20036;-67
2022/02/25 08:30:42;;;;;;;15.77;9.15;;;9.50;99.90;;;;;;5022953;28;20036;-67
2022/02/25 08:33:46;;;;;;;12.48;8.25;;;9.50;99.90;;;;;;5028348;28;20045;-67
2022/02/25 08:36:55;;;;;;;19.50;9.50;;;10.10;99.90;;;;;;5026968;28;20388;-68
2022/02/25 08:39:59;;;;;;;11.73;8.20;;;10.10;99.90;;;;;;5028105;28;20487;-68
2022/02/25 08:43:04;;;;;;;17.45;7.47;;;10.40;99.90;;;;;;5024790;28;20417;-68
2022/02/25 08:46:09;;;;;;;15.50;8.27;;;10.50;99.90;;;;;;5024479;28;20044;-68
2022/02/25 08:49:14;;;;;;;18.05;9.82;;;10.50;99.90;;;;;;5029156;28;20052;-68
2022/02/25 08:52:18;;;;;;;13.55;7.80;;;10.60;99.90;;;;;;5030097;28;20056;-68
2022/02/25 08:55:23;;;;;;;15.57;8.85;;;10.80;99.90;;;;;;5030046;28;20060;-67
2022/02/25 08:58:28;;;;;;;18.27;9.75;;;11.10;99.90;;;;;;5027900;28;20052;-68
2022/02/25 09:01:32;;;;;;;19.33;8.52;;;11.00;99.90;;;;;;5026896;28;20048;-67
2022/02/25 09:04:37;;;;;;;17.35;9.48;;;10.50;99.90;;;;;;5023164;28;20045;-67
2022/02/25 09:07:41;;;;;;;20.83;11.20;;;10.60;99.90;;;;;;5020431;28;20125;-67
2022/02/25 09:10:47;;;;;;;20.00;10.20;;;10.90;99.90;;;;;;5024752;28;20052;-68
2022/02/25 09:13:51;;;;;;;15.82;10.25;;;10.60;99.90;;;;;;5025664;28;20044;-66
2022/02/25 09:16:55;;;;;;;17.08;9.55;;;10.20;99.90;;;;;;5025883;28;20060;-66
2022/02/25 09:20:01;;;;;;;15.23;8.57;;;9.80;99.90;;;;;;5022921;28;20389;-66
2022/02/25 09:23:06;;;;;;;13.82;8.70;;;9.60;99.90;;;;;;5025279;28;20401;-69
2022/02/25 09:26:10;;;;;;;20.20;9.77;;;9.20;99.90;;;;;;5022791;28;20231;-69
2022/02/25 09:29:14;;;;;;;12.50;8.30;;;9.30;99.90;;;;;;5021320;28;20048;-69
2022/02/25 09:32:18;;;;;;;17.83;8.27;;;9.40;99.90;;;;;;5023854;28;20049;-66
2022/02/25 09:35:23;;;;;;;19.42;9.73;;;9.60;99.90;;;;;;5027063;28;20053;-69
2022/02/25 09:38:27;;;;;;;13.73;8.07;;;9.70;99.90;;;;;;5019003;28;20040;-67
2022/02/25 09:41:32;;;;;;;14.38;8.95;;;9.90;99.90;;;;;;5027139;28;20045;-67
2022/02/25 09:44:36;;;;;;;12.30;8.50;;;10.00;99.90;;;;;;5030134;28;20045;-67
2022/02/25 09:47:41;;;;;;;62.78;34.78;;;10.00;99.90;;;;;;5025738;28;20492;-67
2022/02/25 09:50:47;;;;;;;28.30;14.05;;;10.00;99.90;;;;;;5022076;28;20045;-67
2022/02/25 09:53:51;;;;;;;21.40;12.10;;;10.00;99.90;;;;;;5028903;28;20053;-67
2022/02/25 09:56:55;;;;;;;19.50;9.10;;;10.00;99.90;;;;;;5023307;28;20044;-67
2022/02/25 09:59:59;;;;;;;14.40;8.55;;;10.20;99.90;;;;;;5031879;28;20117;-67
2022/02/25 10:03:06;;;;;;;14.05;7.43;;;10.60;99.90;;;;;;5025546;28;20049;-67
2022/02/25 10:06:10;;;;;;;15.25;7.72;;;11.00;99.90;;;;;;5028687;28;20044;-66
2022/02/25 10:09:27;;;;;;;18.33;7.80;;;11.70;99.90;;;;;;5029387;28;20040;-66
2022/02/25 10:12:32;;;;;;;11.25;5.57;;;12.00;99.90;;;;;;5025865;28;20478;-66
2022/02/25 10:15:37;;;;;;;14.18;6.10;;;12.60;99.90;;;;;;5029356;28;20061;-66
2022/02/25 10:18:43;;;;;;;13.45;5.70;;;12.40;99.90;;;;;;5026393;28;20048;-66
2022/02/25 10:21:47;;;;;;;13.80;5.97;;;11.80;99.90;;;;;;5023939;28;20041;-66
2022/02/25 10:24:58;;;;;;;15.48;6.35;;;11.60;99.90;;;;;;5028527;28;20041;-66
2022/02/25 10:28:05;;;;;;;12.88;6.05;;;11.40;99.90;;;;;;5025145;28;20669;-65
2022/02/25 10:31:23;;;;;;;9.75;5.97;;;11.40;99.90;;;;;;5025226;28;20033;-66
2022/02/25 10:34:28;;;;;;;21.05;7.28;;;11.60;99.90;;;;;;5027654;28;20116;-66
2022/02/25 10:37:32;;;;;;;10.32;5.93;;;10.90;99.90;;;;;;5026846;28;20044;-66
2022/02/25 10:40:42;;;;;;;16.70;7.70;;;11.10;99.90;;;;;;5027449;28;20040;-66
2022/02/25 10:43:47;;;;;;;13.40;6.00;;;11.00;99.90;;;;;;5026586;28;20056;-66
2022/02/25 10:47:11;;;;;;;13.38;5.97;;;11.20;99.90;;;;;;5027897;28;20036;-66
2022/02/25 10:50:17;;;;;;;12.05;5.05;;;11.40;99.90;;;;;;5028235;28;20048;-66
2022/02/25 10:53:31;;;;;;;15.15;6.35;;;11.70;99.90;;;;;;5023089;28;20404;-66
2022/02/25 10:56:46;;;;;;;11.02;5.10;;;12.70;99.90;;;;;;5030516;28;20049;-66
2022/02/25 10:59:50;;;;;;;9.93;4.05;;;14.70;99.90;;;;;;5029634;28;20049;-66
2022/02/25 11:02:59;;;;;;;7.10;3.78;;;16.30;99.90;;;;;;5029779;28;20109;-66
2022/02/25 11:06:11;;;;;;;12.52;4.10;;;15.10;99.90;;;;;;5030410;28;20049;-66
2022/02/25 11:09:15;;;;;;;;;;;14.90;99.90;;;;;;5026063;28;20384;-66
2022/02/25 11:12:19;;;;;;;10.40;4.00;;;13.80;99.90;;;;;;5029189;28;19920;-66
2022/02/25 11:15:28;;;;;;;16.35;4.20;;;13.90;99.90;;;;;;5031511;28;20388;-66
2022/02/25 11:18:33;;;;;;;8.93;3.70;;;13.30;99.90;;;;;;5025637;28;20044;-66
2022/02/25 11:21:37;;;;;;;10.50;4.63;;;13.20;99.90;;;;;;5027511;28;20040;-66
2022/02/25 11:24:42;;;;;;;12.13;4.03;;;12.90;99.90;;;;;;5030864;28;20618;-66
2022/02/25 11:27:47;;;;;;;11.73;5.03;;;12.90;99.90;;;;;;5028441;28;20037;-67
2022/02/25 11:31:26;;;;;;;9.43;3.80;;;12.50;99.90;;;;;;5026421;28;20048;-67
2022/02/25 11:34:30;;;;;;;13.02;4.00;;;12.30;99.90;;;;;;5030054;28;20044;-67
2022/02/25 11:37:46;;;;;;;10.00;3.58;;;12.30;99.90;;;;;;5027628;28;20040;-67
2022/02/25 11:40:52;;;;;;;11.63;3.58;;;11.90;99.90;;;;;;5029064;28;20044;-67
2022/02/25 11:44:04;;;;;;;7.45;3.28;;;11.80;99.90;;;;;;5031074;28;20048;-67
2022/02/25 11:47:08;;;;;;;13.90;4.05;;;11.90;99.90;;;;;;5027206;28;20041;-67
2022/02/25 11:50:49;;;;;;;13.57;4.75;;;11.80;99.90;;;;;;5026635;28;20052;-67
2022/02/25 11:54:34;;;;;;;26.77;6.82;;;11.90;99.90;;;;;;5006213;28;20049;-67
2022/02/25 11:57:38;;;;;;;24.35;7.68;;;11.90;99.90;;;;;;5019097;28;20040;-67
2022/02/25 12:01:06;;;;;;;22.13;6.93;;;12.10;99.90;;;;;;5025888;28;20033;-67
2022/02/25 12:04:12;;;;;;;11.30;4.10;;;12.00;99.90;;;;;;5025789;28;20029;-67
2022/02/25 12:07:37;;;;;;;9.73;3.55;;;12.20;99.90;;;;;;5024736;28;20041;-67
2022/02/25 12:10:41;;;;;;;12.05;4.15;;;12.10;99.90;;;;;;5026951;28;20032;-67
2022/02/25 12:13:47;;;;;;;13.90;4.07;;;12.10;99.90;;;;;;5026437;28;20045;-67
2022/02/25 12:17:06;;;;;;;14.00;3.22;;;11.70;99.90;;;;;;5019401;28;20617;-67
2022/02/25 12:20:17;;;;;;;15.15;5.30;;;11.50;99.90;;;;;;5026178;28;20056;-67
2022/02/25 12:23:37;;;;;;;16.35;4.63;;;11.10;99.90;;;;;;5020297;28;20491;-66
2022/02/25 12:26:42;;;;;;;18.15;5.90;;;11.10;99.90;;;;;;5024852;28;20041;-67
2022/02/25 12:29:46;;;;;;;11.70;4.65;;;11.30;99.90;;;;;;5028413;28;20044;-67
2022/02/25 12:32:52;;;;;;;14.35;5.45;;;11.30;99.90;;;;;;5028632;28;20052;-67
2022/02/25 12:35:59;;;;;;;21.88;6.07;;;11.30;99.90;;;;;;5028223;28;20041;-66
2022/02/25 12:39:18;;;;;;;17.08;7.68;;;11.30;99.90;;;;;;5029010;28;20060;-67
2022/02/25 12:42:28;;;;;;;12.95;5.90;;;11.50;99.90;;;;;;5027044;28;20380;-67
2022/02/25 12:45:37;;;;;;;12.70;6.03;;;11.70;99.90;;;;;;5019624;28;20044;-66
2022/02/25 12:48:41;;;;;;;12.70;5.65;;;11.70;99.90;;;;;;5026520;28;20040;-67
2022/02/25 12:51:48;;;;;;;13.65;5.88;;;11.90;99.90;;;;;;5025241;28;20381;-67
2022/02/25 12:54:57;;;;;;;16.60;5.50;;;12.20;99.90;;;;;;5026726;28;20036;-67
2022/02/25 12:58:02;;;;;;;13.57;5.57;;;12.40;99.90;;;;;;5023178;28;20037;-67
2022/02/25 13:01:06;;;;;;;13.43;4.78;;;12.50;99.90;;;;;;5027975;28;20048;-67
2022/02/25 13:04:21;;;;;;;10.85;4.32;;;12.60;99.90;;;;;;5023708;28;20044;-67
2022/02/25 13:07:26;;;;;;;13.18;4.63;;;12.60;99.90;;;;;;5023304;28;20398;-67
2022/02/25 13:10:30;;;;;;;12.90;4.38;;;12.70;99.90;;;;;;5021417;28;20056;-67
2022/02/25 13:13:34;;;;;;;10.98;4.95;;;12.10;99.90;;;;;;5010125;28;20079;-67
2022/02/25 13:53:02;;;;;;;14.25;7.15;;;11.30;99.90;;;;;;5029426;28;20049;-68
2022/02/25 13:56:07;;;;;;;14.80;6.53;;;11.60;99.90;;;;;;5015104;28;20059;-67
2022/02/25 13:59:14;;;;;;;16.17;7.03;;;11.70;99.90;;;;;;5025162;28;20052;-68
2022/02/25 14:02:27;;;;;;;13.13;6.75;;;11.70;99.90;;;;;;5025109;28;20048;-67
2022/02/25 14:05:35;;;;;;;;;;;11.80;99.90;;;;;;5024664;28;20044;-67
2022/02/25 14:08:40;;;;;;;13.43;6.10;;;12.00;99.90;;;;;;5024916;28;19920;-68
2022/02/25 14:11:44;;;;;;;11.48;5.70;;;12.20;99.90;;;;;;5022001;28;20044;-67
2022/02/25 14:14:51;;;;;;;18.15;5.97;;;12.30;99.90;;;;;;5029091;28;20040;-67
2022/02/25 14:18:02;;;;;;;16.65;7.03;;;12.10;99.90;;;;;;5021927;28;20060;-68
2022/02/25 14:21:07;;;;;;;12.43;6.38;;;12.00;99.90;;;;;;5026264;28;20052;-68
2022/02/25 14:24:22;;;;;;;15.05;6.40;;;12.20;99.90;;;;;;5025052;28;20216;-67
2022/02/25 14:27:27;;;;;;;17.77;7.07;;;12.30;99.90;;;;;;5022400;28;20060;-67
2022/02/25 14:30:43;;;;;;;18.88;7.95;;;12.20;99.90;;;;;;5026902;28;20052;-68
2022/02/25 14:33:48;;;;;;;16.20;7.45;;;11.60;99.90;;;;;;5015337;28;20056;-68
2022/02/25 14:36:53;;;;;;;20.13;7.88;;;11.00;99.90;;;;;;5028057;28;20503;-67
2022/02/25 14:40:07;;;;;;;22.58;9.07;;;11.00;99.90;;;;;;5027595;28;20397;-66
2022/02/25 14:43:14;;;;;;;17.10;8.95;;;10.60;99.90;;;;;;5024462;28;20472;-66
2022/02/25 14:46:19;;;;;;;24.08;9.82;;;10.20;99.90;;;;;;5027435;28;20048;-69
2022/02/25 14:49:24;;;;;;;25.25;10.40;;;9.90;99.90;;;;;;5017760;28;20049;-69
2022/02/25 14:52:31;;;;;;;23.15;11.40;;;9.80;99.90;;;;;;5029244;28;20060;-67
2022/02/25 14:55:37;;;;;;;21.52;10.32;;;9.90;99.90;;;;;;5028064;28;20040;-67
2022/02/25 14:58:41;;;;;;;23.42;12.00;;;9.90;99.90;;;;;;5024236;28;20117;-67
2022/02/25 15:01:45;;;;;;;23.90;12.20;;;9.80;99.90;;;;;;5016942;28;20109;-67
2022/02/25 15:04:49;;;;;;;29.85;13.90;;;9.80;99.90;;;;;;5028320;28;20054;-67
2022/02/25 15:07:54;;;;;;;30.08;14.38;;;9.80;99.90;;;;;;5032408;28;20052;-67
2022/02/25 15:10:59;;;;;;;25.48;12.93;;;9.90;99.90;;;;;;5023405;28;20499;-67
2022/02/25 15:14:03;;;;;;;24.52;11.90;;;10.10;99.90;;;;;;5022391;28;20056;-68
2022/02/25 15:17:06;;;;;;;22.85;12.38;;;10.20;99.90;;;;;;5030218;28;20052;-68
2022/02/25 15:20:12;;;;;;;21.55;11.85;;;10.30;99.90;;;;;;5030938;28;20045;-67
2022/02/25 15:23:16;;;;;;;17.88;11.07;;;10.40;99.90;;;;;;5029513;28;20040;-67
2022/02/25 15:26:20;;;;;;;24.58;12.38;;;10.40;99.90;;;;;;5030077;28;20040;-67
2022/02/25 15:29:24;;;;;;;25.77;13.45;;;10.40;99.90;;;;;;5019028;28;20220;-67
2022/02/25 15:32:29;;;;;;;27.30;13.25;;;10.50;99.90;;;;;;5025353;28;20480;-67
2022/02/25 15:35:33;;;;;;;23.88;12.60;;;10.50;99.90;;;;;;5027508;28;20049;-67
2022/02/25 15:38:38;;;;;;;23.60;15.70;;;10.50;99.90;;;;;;5019121;28;20045;-67
2022/02/25 15:41:42;;;;;;;23.70;11.82;;;10.60;99.90;;;;;;5028663;28;20121;-67
2022/02/25 15:44:47;;;;;;;19.05;11.48;;;10.60;99.90;;;;;;5024682;28;20056;-67
2022/02/25 15:47:51;;;;;;;26.58;12.65;;;10.70;99.90;;;;;;5029969;28;20040;-68
2022/02/25 15:50:55;;;;;;;35.72;18.35;;;10.70;99.90;;;;;;5030677;28;20048;-68
2022/02/25 15:54:00;;;;;;;40.22;20.55;;;10.70;99.90;;;;;;5020352;28;20044;-68
2022/02/25 15:57:04;;;;;;;30.83;18.80;;;10.70;99.90;;;;;;5011855;28;20060;-68
2022/02/25 16:00:09;;;;;;;34.55;20.02;;;10.80;99.90;;;;;;5023488;28;20044;-68
2022/02/25 16:03:18;;;;;;;38.63;21.65;;;10.80;99.90;;;;;;5029329;28;20044;-67
2022/02/25 16:06:23;;;;;;;34.17;22.33;;;10.80;99.90;;;;;;5030941;28;20032;-68
2022/02/25 16:09:27;;;;;;;30.77;17.27;;;10.90;99.90;;;;;;5029964;28;20089;-68
2022/02/25 16:12:31;;;;;;;30.60;15.10;;;11.00;99.90;;;;;;5030208;28;20049;-68
2022/02/25 16:15:35;;;;;;;30.83;16.10;;;11.20;99.90;;;;;;5028219;28;20044;-67
2022/02/25 16:18:41;;;;;;;28.23;14.95;;;11.20;99.90;;;;;;5030459;28;20377;-68
2022/02/25 16:21:46;;;;;;;29.65;14.88;;;11.20;99.90;;;;;;5031422;28;20048;-68
2022/02/25 16:24:51;;;;;;;22.05;14.05;;;11.10;99.90;;;;;;5024205;28;20036;-68
2022/02/25 16:27:56;;;;;;;28.02;13.80;;;11.00;99.90;;;;;;5030502;28;20396;-68
2022/02/25 16:31:00;;;;;;;29.20;14.40;;;10.80;99.90;;;;;;5030334;28;20052;-68
2022/02/25 16:34:04;;;;;;;27.15;14.50;;;10.70;99.90;;;;;;5029710;28;20040;-67
2022/02/25 16:37:08;;;;;;;24.25;14.10;;;10.60;99.90;;;;;;5029867;28;20045;-68
2022/02/25 16:40:13;;;;;;;26.75;14.70;;;10.50;99.90;;;;;;5030064;28;20048;-68
2022/02/25 16:43:17;;;;;;;32.58;15.50;;;10.50;99.90;;;;;;5030473;28;20512;-68
2022/02/25 16:46:21;;;;;;;26.33;13.80;;;10.50;99.90;;;;;;5030176;28;20041;-68